43NY weather

St. Joseph's Hospital Heliport
Syracuse, New York, United States

Public forecast

Using degrees Fahrenheit for public forecast. Weather courtesy of forecast.io.

METAR (pilot weather report)

Closest report is Syracuse Hancock International Airport, 3.9 nm (7.2 km) NNE. Retrieved 2019/07/18 21:54 UTC (57 minutes ago):

KSYR 182154Z 02003KT 10SM SCT025 BKN180 30/20 A2987 RMK SLP117 T02950204

TAF (pilot weather forecast)

Closest forecast is Syracuse Hancock International Airport, 3.9 nm (7.2 km) NNE. Retrieved 2019/07/18 18:36 UTC (4 hours ago):

TAF KSYR 181733Z 1818/1918 VRB03KT P6SM SCT050 FM190000 VRB03KT P6SM SCT250 FM191200 20005KT P6SM BKN100 FM191700 25008KT P6SM BKN050